createdAt,value
2023-02-17T00:01:42.992Z,64.83
2023-02-17T00:04:11.963Z,66.23
2023-02-17T00:06:40.395Z,65.78
2023-02-17T00:09:08.887Z,67.54
2023-02-17T00:11:37.385Z,67.01
2023-02-17T00:14:05.946Z,66.84
2023-02-17T00:16:35.770Z,67.02
2023-02-17T00:19:25.020Z,67.64
2023-02-17T00:21:56.124Z,67.72
2023-02-17T00:24:25.774Z,67.66
2023-02-17T00:26:54.263Z,67.55
2023-02-17T00:29:23.002Z,67.43
2023-02-17T00:31:54.370Z,67.45
2023-02-17T00:34:23.162Z,69.07
2023-02-17T00:36:52.646Z,69.41
2023-02-17T00:39:21.284Z,69.32
2023-02-17T00:41:49.787Z,70.92
2023-02-17T00:44:21.815Z,71.48
2023-02-17T00:46:52.276Z,72.24
2023-02-17T00:49:23.335Z,72.39
2023-02-17T00:51:52.686Z,73.04
2023-02-17T00:54:21.826Z,72.72
2023-02-17T00:56:50.325Z,74.14
2023-02-17T00:59:18.808Z,74.39
2023-02-17T01:01:47.346Z,75.03
2023-02-17T01:04:17.185Z,75.20
2023-02-17T01:06:45.820Z,76.16
2023-02-17T01:09:16.227Z,76.22
2023-02-17T01:11:44.983Z,76.45
2023-02-17T01:14:15.508Z,78.16
2023-02-17T01:16:48.671Z,78.75
2023-02-17T01:19:20.599Z,78.67
2023-02-17T01:21:49.673Z,78.70
2023-02-17T01:24:18.472Z,79.27
2023-02-17T01:26:46.925Z,78.94
2023-02-17T01:29:15.413Z,77.73
2023-02-17T01:31:44.121Z,79.24
2023-02-17T01:34:12.837Z,79.33
2023-02-17T01:36:42.645Z,78.69
2023-02-17T01:39:14.773Z,77.52
2023-02-17T01:41:43.794Z,78.46
2023-02-17T01:44:17.597Z,78.28
2023-02-17T01:46:48.272Z,76.69
2023-02-17T01:49:29.712Z,78.11
2023-02-17T01:52:07.173Z,77.04
2023-02-17T01:54:40.784Z,77.51
2023-02-17T01:57:09.387Z,77.54
2023-02-17T01:59:38.388Z,76.77
2023-02-17T02:02:08.207Z,76.05
2023-02-17T02:04:40.873Z,75.59
2023-02-17T02:07:19.298Z,75.54
2023-02-17T02:09:52.743Z,74.93
2023-02-17T02:12:23.796Z,75.06
2023-02-17T02:14:54.157Z,75.47
2023-02-17T02:17:34.006Z,74.16
2023-02-17T02:20:35.270Z,74.70
2023-02-17T02:23:34.268Z,74.68
2023-02-17T02:26:38.691Z,74.21
2023-02-17T02:29:31.697Z,74.61
2023-02-17T02:32:26.976Z,74.51
2023-02-17T02:35:02.891Z,75.27
2023-02-17T02:37:36.977Z,75.29
2023-02-17T02:40:09.525Z,75.69
2023-02-17T02:42:38.691Z,75.27
2023-02-17T02:45:09.090Z,75.18
2023-02-17T02:47:48.274Z,76.66
2023-02-17T02:50:20.498Z,75.85
2023-02-17T02:53:14.265Z,75.88
2023-02-17T02:55:54.575Z,76.16
2023-02-17T02:58:30.453Z,74.98
2023-02-17T03:01:07.065Z,76.56
2023-02-17T03:03:43.973Z,74.33
2023-02-17T03:06:20.094Z,75.80
2023-02-17T03:08:53.086Z,75.38
2023-02-17T03:11:32.505Z,75.22
2023-02-17T03:14:06.761Z,74.76
2023-02-17T03:16:35.986Z,75.05
2023-02-17T03:19:06.654Z,74.69
2023-02-17T03:21:40.425Z,75.21
2023-02-17T03:24:09.646Z,76.74
2023-02-17T03:26:38.145Z,78.92
2023-02-17T03:29:06.787Z,80.07
2023-02-17T03:31:35.686Z,80.48
2023-02-17T03:34:07.084Z,80.75
2023-02-17T03:36:35.558Z,81.12
2023-02-17T03:39:04.061Z,81.29
2023-02-17T03:41:32.470Z,80.29
2023-02-17T03:44:00.906Z,79.99
2023-02-17T03:46:29.381Z,80.81
2023-02-17T03:48:57.804Z,78.35
2023-02-17T03:51:28.084Z,78.20
2023-02-17T03:53:56.505Z,77.89
2023-02-17T03:56:25.344Z,77.12
2023-02-17T03:58:54.053Z,77.31
2023-02-17T04:01:22.882Z,75.79
2023-02-17T04:03:51.881Z,77.31
2023-02-17T04:06:20.369Z,77.79
2023-02-17T04:08:50.248Z,76.28
2023-02-17T04:11:18.695Z,77.08
2023-02-17T04:13:47.389Z,77.94
2023-02-17T04:16:15.870Z,76.98
2023-02-17T04:18:44.338Z,75.99
2023-02-17T04:21:12.773Z,74.45
2023-02-17T04:23:41.240Z,73.85
2023-02-17T04:26:11.349Z,73.42
2023-02-17T04:28:40.756Z,74.50
2023-02-17T04:31:09.896Z,72.22
2023-02-17T04:33:39.750Z,73.70
2023-02-17T04:36:08.729Z,71.08
2023-02-17T04:38:37.642Z,71.39
2023-02-17T04:41:07.665Z,71.42
2023-02-17T04:43:37.705Z,71.23
2023-02-17T04:46:07.004Z,70.18
2023-02-17T04:48:35.594Z,71.55
2023-02-17T04:51:04.769Z,71.37
2023-02-17T04:53:33.221Z,71.50
2023-02-17T04:56:01.659Z,71.01
2023-02-17T04:58:30.131Z,70.96
2023-02-17T05:01:00.850Z,70.56
2023-02-17T05:03:29.356Z,69.81
2023-02-17T05:05:57.784Z,70.43
2023-02-17T05:08:26.521Z,70.89
2023-02-17T05:10:55.177Z,70.62
2023-02-17T05:13:23.593Z,69.51
2023-02-17T05:15:52.289Z,70.31
2023-02-17T05:18:22.125Z,70.11
2023-02-17T05:20:50.897Z,70.31
2023-02-17T05:23:19.304Z,71.10
2023-02-17T05:25:47.742Z,70.66
2023-02-17T05:28:16.162Z,71.14
2023-02-17T05:30:44.578Z,70.40
2023-02-17T05:33:13.072Z,71.21
2023-02-17T05:35:42.886Z,71.12
2023-02-17T05:38:11.279Z,71.49
2023-02-17T05:40:39.694Z,70.41
2023-02-17T05:43:08.318Z,71.21
2023-02-17T05:45:37.004Z,72.05
2023-02-17T05:48:06.010Z,72.46
2023-02-17T05:50:34.497Z,71.39
2023-02-17T05:53:04.392Z,72.62
2023-02-17T05:55:33.016Z,72.44
2023-02-17T05:58:01.527Z,72.39
2023-02-17T06:00:30.152Z,72.70
2023-02-17T06:02:58.858Z,72.75
2023-02-17T06:05:27.319Z,73.84
2023-02-17T06:07:55.746Z,73.04
2023-02-17T06:10:25.719Z,73.67
2023-02-17T06:12:54.132Z,73.96
2023-02-17T06:15:22.647Z,74.82
2023-02-17T06:17:51.077Z,74.79
2023-02-17T06:20:20.033Z,74.78
2023-02-17T06:22:48.463Z,74.33
2023-02-17T06:25:17.444Z,74.06
2023-02-17T06:27:47.242Z,74.93
2023-02-17T06:30:17.709Z,76.09
2023-02-17T06:32:46.193Z,76.14
2023-02-17T06:35:14.875Z,76.33
2023-02-17T06:37:43.701Z,76.55
2023-02-17T06:40:13.506Z,77.04
2023-02-17T06:42:42.772Z,76.13
2023-02-17T06:45:12.724Z,77.67
2023-02-17T06:47:41.156Z,76.14
2023-02-17T06:50:11.140Z,76.39
2023-02-17T06:52:40.270Z,76.03
2023-02-17T06:55:10.008Z,77.04
2023-02-17T06:57:38.484Z,76.32
2023-02-17T07:00:08.844Z,76.58
2023-02-17T07:02:41.019Z,76.90
2023-02-17T07:05:10.062Z,76.21
2023-02-17T07:07:41.391Z,76.21
2023-02-17T07:10:10.872Z,76.89
2023-02-17T07:12:39.268Z,77.02
2023-02-17T07:15:12.442Z,77.46
2023-02-17T07:17:42.414Z,78.34
2023-02-17T07:20:12.270Z,79.59
2023-02-17T07:22:40.788Z,79.44
2023-02-17T07:25:09.709Z,80.51
2023-02-17T07:27:38.388Z,81.31
2023-02-17T07:30:08.913Z,81.75
2023-02-17T07:32:37.383Z,84.46
2023-02-17T07:35:07.970Z,85.32
2023-02-17T07:37:36.600Z,85.85
2023-02-17T07:40:06.815Z,86.31
2023-02-17T07:42:35.528Z,87.62
2023-02-17T07:45:04.669Z,86.95
2023-02-17T07:47:33.785Z,86.66
2023-02-17T07:50:02.204Z,87.96
2023-02-17T07:52:32.015Z,87.98
2023-02-17T07:55:00.431Z,87.69
2023-02-17T07:57:29.984Z,87.45
2023-02-17T07:59:58.452Z,88.00
2023-02-17T08:02:27.542Z,87.35
2023-02-17T08:04:55.957Z,87.04
2023-02-17T08:07:24.930Z,86.27
2023-02-17T08:10:11.855Z,86.48
2023-02-17T08:12:57.597Z,85.66
2023-02-17T08:15:26.188Z,86.43
2023-02-17T08:17:54.605Z,86.16
2023-02-17T08:20:23.058Z,85.11
2023-02-17T08:22:51.520Z,85.61
2023-02-17T08:25:21.933Z,86.11
2023-02-17T08:27:50.446Z,85.88
2023-02-17T08:30:19.148Z,85.79
2023-02-17T08:32:48.603Z,85.05
2023-02-17T08:35:19.191Z,86.09
2023-02-17T08:37:47.701Z,84.57
2023-02-17T08:40:16.400Z,85.21
2023-02-17T08:42:46.882Z,84.82
2023-02-17T08:45:16.796Z,84.69
2023-02-17T08:47:45.744Z,85.06
2023-02-17T08:53:06.937Z,84.65
2023-02-17T08:55:48.629Z,84.35
2023-02-17T08:58:19.298Z,83.69
2023-02-17T09:00:47.824Z,84.39
2023-02-17T09:03:16.576Z,84.52
2023-02-17T09:05:45.101Z,83.82
2023-02-17T09:08:14.008Z,83.30
2023-02-17T09:10:42.502Z,84.49
2023-02-17T09:13:10.940Z,84.01
2023-02-17T09:15:40.819Z,84.83
2023-02-17T09:18:09.314Z,84.44
2023-02-17T09:20:39.543Z,84.92
2023-02-17T09:23:08.533Z,85.39
2023-02-17T09:25:37.058Z,85.18
2023-02-17T09:28:06.305Z,85.35
2023-02-17T09:30:34.954Z,85.71
2023-02-17T09:33:05.465Z,85.56
2023-02-17T09:35:37.660Z,85.42
2023-02-17T09:38:06.080Z,85.42
2023-02-17T09:40:44.240Z,85.63
2023-02-17T09:43:16.866Z,85.43
2023-02-17T09:45:51.059Z,85.22
2023-02-17T09:48:25.581Z,85.94
2023-02-17T09:51:00.797Z,86.30
2023-02-17T09:53:36.908Z,85.46
2023-02-17T09:56:10.957Z,86.40
2023-02-17T09:58:44.089Z,85.86
2023-02-17T10:01:20.377Z,87.14
2023-02-17T10:03:57.613Z,86.82
2023-02-17T10:06:31.594Z,87.36
2023-02-17T10:09:05.821Z,88.29
2023-02-17T10:11:37.294Z,87.45
2023-02-17T10:14:11.639Z,87.36
2023-02-17T10:16:47.119Z,87.84
2023-02-17T10:19:25.701Z,88.43
2023-02-17T10:22:05.508Z,86.90
2023-02-17T10:24:33.943Z,87.17
2023-02-17T10:27:20.299Z,84.63
2023-02-17T10:30:01.509Z,87.20
2023-02-17T10:32:31.541Z,85.17
2023-02-17T10:35:16.126Z,84.36
2023-02-17T10:37:49.531Z,83.42
2023-02-17T10:40:24.904Z,83.84
2023-02-17T10:42:58.159Z,83.70
2023-02-17T10:45:31.868Z,84.29
2023-02-17T10:48:05.929Z,85.19
2023-02-17T10:50:37.990Z,85.89
2023-02-17T10:53:15.161Z,85.86
2023-02-17T10:56:01.190Z,85.08
2023-02-17T10:58:35.372Z,85.13
2023-02-17T11:01:06.452Z,85.13
2023-02-17T11:03:36.938Z,85.04
2023-02-17T11:06:17.552Z,86.00
2023-02-17T11:08:51.283Z,85.23
2023-02-17T11:11:23.450Z,85.95
2023-02-17T11:14:05.509Z,84.63
2023-02-17T11:16:39.507Z,85.53
2023-02-17T11:19:21.507Z,85.09
2023-02-17T11:21:52.936Z,85.52
2023-02-17T11:24:21.887Z,86.02
2023-02-17T11:26:58.692Z,84.65
2023-02-17T11:29:28.344Z,84.96
2023-02-17T11:31:59.660Z,85.70
2023-02-17T11:34:33.255Z,85.10
2023-02-17T11:37:07.604Z,85.89
2023-02-17T11:39:42.657Z,84.83
2023-02-17T11:42:23.736Z,85.60
2023-02-17T11:44:52.878Z,85.04
2023-02-17T11:47:34.894Z,85.00
2023-02-17T11:50:31.707Z,85.16
2023-02-17T11:53:25.101Z,85.46
2023-02-17T11:56:07.578Z,84.52
2023-02-17T11:58:58.249Z,83.63
2023-02-17T12:01:53.643Z,84.32
2023-02-17T12:04:28.298Z,84.19
2023-02-17T12:07:22.751Z,84.56
2023-02-17T12:10:03.031Z,84.61
2023-02-17T12:12:48.279Z,83.91
2023-02-17T12:15:30.794Z,84.66
2023-02-17T12:18:12.453Z,83.60
2023-02-17T12:20:52.337Z,83.74
2023-02-17T12:23:36.284Z,83.24
2023-02-17T12:26:15.361Z,82.01
2023-02-17T12:29:01.750Z,82.42
2023-02-17T12:32:14.907Z,82.39
2023-02-17T12:34:47.439Z,82.77
2023-02-17T12:37:21.840Z,84.17
2023-02-17T12:39:55.145Z,83.51
2023-02-17T12:42:31.916Z,83.41
2023-02-17T12:45:05.926Z,82.97
2023-02-17T12:47:45.890Z,83.09
2023-02-17T12:50:21.380Z,82.27
2023-02-17T12:52:56.171Z,82.47
2023-02-17T12:55:30.624Z,82.59
2023-02-17T12:58:05.662Z,82.72
2023-02-17T13:00:39.741Z,82.65
2023-02-17T13:03:08.798Z,82.71
2023-02-17T13:05:42.374Z,81.81
2023-02-17T13:08:16.562Z,81.64
2023-02-17T13:10:45.308Z,82.30
2023-02-17T13:13:28.298Z,81.15
2023-02-17T13:16:05.899Z,80.91
2023-02-17T13:18:36.881Z,81.11
2023-02-17T13:21:20.644Z,81.66
2023-02-17T13:24:01.634Z,81.22
2023-02-17T13:26:33.838Z,82.46
2023-02-17T13:29:34.595Z,81.85
2023-02-17T13:32:07.500Z,82.17
2023-02-17T13:34:38.596Z,82.50
2023-02-17T13:37:22.324Z,82.67
2023-02-17T13:39:50.927Z,82.85
2023-02-17T13:42:37.825Z,82.42
2023-02-17T13:45:19.842Z,82.62
2023-02-17T13:47:50.905Z,82.28
2023-02-17T13:50:33.749Z,82.44
2023-02-17T13:53:03.448Z,82.21
2023-02-17T13:55:31.915Z,82.81
2023-02-17T13:58:00.949Z,82.04
2023-02-17T14:00:32.841Z,82.85
2023-02-17T14:03:13.189Z,83.05
2023-02-17T14:05:46.380Z,82.73
2023-02-17T14:08:20.010Z,83.42
2023-02-17T14:10:49.202Z,83.71
2023-02-17T14:13:17.716Z,83.39
2023-02-17T14:15:57.319Z,83.88
2023-02-17T14:18:36.610Z,83.60
2023-02-17T14:21:09.531Z,83.07
2023-02-17T14:23:52.672Z,83.35
2023-02-17T14:26:31.733Z,83.78
2023-02-17T14:29:03.145Z,83.25
2023-02-17T14:31:39.553Z,82.68
2023-02-17T14:34:13.117Z,83.20
2023-02-17T14:36:42.439Z,83.43
2023-02-17T14:39:16.177Z,82.79
2023-02-17T14:41:45.197Z,83.48
2023-02-17T14:44:13.640Z,83.80
2023-02-17T14:46:43.563Z,83.31
2023-02-17T14:49:12.051Z,83.22
2023-02-17T14:51:41.026Z,83.17
2023-02-17T14:54:16.204Z,83.95
2023-02-17T14:56:50.613Z,83.24
2023-02-17T14:59:19.253Z,83.74
2023-02-17T15:01:49.098Z,84.04
2023-02-17T15:04:17.560Z,83.10
2023-02-17T15:06:49.447Z,83.46
2023-02-17T15:09:21.790Z,83.57
2023-02-17T15:11:50.559Z,83.87
2023-02-17T15:14:21.781Z,83.71
2023-02-17T15:16:51.979Z,83.54
2023-02-17T15:19:20.615Z,83.06
2023-02-17T15:21:52.318Z,83.83
2023-02-17T15:24:28.232Z,82.99
2023-02-17T15:26:58.605Z,83.27
2023-02-17T15:29:28.428Z,83.08
2023-02-17T15:32:02.160Z,83.47
2023-02-17T15:34:34.019Z,84.08
2023-02-17T15:37:03.721Z,83.61
2023-02-17T15:39:32.160Z,83.42
2023-02-17T15:42:05.769Z,83.60
2023-02-17T15:44:43.184Z,83.95
2023-02-17T15:47:18.652Z,84.47
2023-02-17T15:49:47.521Z,83.78
2023-02-17T15:52:16.434Z,83.56
2023-02-17T15:54:46.323Z,84.04
2023-02-17T15:57:24.251Z,83.77
2023-02-17T15:59:55.066Z,83.45
2023-02-17T16:02:26.576Z,84.08
2023-02-17T16:04:55.307Z,84.44
2023-02-17T16:07:23.748Z,83.74
2023-02-17T16:09:52.246Z,83.96
2023-02-17T16:12:26.766Z,83.76
2023-02-17T16:14:55.992Z,83.55
2023-02-17T16:17:27.084Z,84.21
2023-02-17T16:19:55.603Z,83.02
2023-02-17T16:22:24.231Z,83.94
2023-02-17T16:24:52.895Z,83.59
2023-02-17T16:27:21.679Z,84.16
2023-02-17T16:29:50.096Z,84.17
2023-02-17T16:32:18.590Z,83.95
2023-02-17T16:34:49.108Z,83.77
2023-02-17T16:37:18.824Z,85.22
2023-02-17T16:39:47.997Z,84.63
2023-02-17T16:42:16.441Z,85.13
2023-02-17T16:44:45.577Z,86.09
2023-02-17T16:47:22.584Z,85.09
2023-02-17T16:49:53.016Z,85.94
2023-02-17T16:52:26.161Z,85.38
2023-02-17T16:54:55.086Z,85.87
2023-02-17T16:57:23.679Z,86.32
2023-02-17T16:59:52.143Z,85.46
2023-02-17T17:02:21.802Z,85.79
2023-02-17T17:04:51.799Z,85.82
2023-02-17T17:07:20.269Z,85.19
2023-02-17T17:10:12.635Z,85.41
2023-02-17T17:12:37.519Z,85.35
2023-02-17T17:15:07.092Z,85.53
2023-02-17T17:17:42.477Z,85.87
2023-02-17T17:20:17.163Z,85.67
2023-02-17T17:22:46.913Z,85.63
2023-02-17T17:25:16.039Z,85.85
2023-02-17T17:27:46.015Z,86.50
2023-02-17T17:30:20.500Z,85.34
2023-02-17T17:32:49.353Z,85.66
2023-02-17T17:35:20.788Z,86.53
2023-02-17T17:37:49.846Z,86.23
2023-02-17T17:40:22.461Z,86.84
2023-02-17T17:42:51.235Z,85.11
2023-02-17T17:45:19.751Z,86.30
2023-02-17T17:47:48.250Z,86.38
2023-02-17T17:50:20.608Z,85.94
2023-02-17T17:52:49.108Z,85.90
2023-02-17T17:55:17.820Z,86.70
2023-02-17T17:57:48.361Z,85.92
2023-02-17T18:00:19.221Z,86.22
2023-02-17T18:02:47.764Z,86.21
2023-02-17T18:05:18.098Z,85.92
2023-02-17T18:07:50.160Z,86.04
2023-02-17T18:10:19.025Z,85.63
2023-02-17T18:12:49.455Z,86.28
2023-02-17T18:15:19.949Z,86.51
2023-02-17T18:17:49.742Z,86.77
2023-02-17T18:20:20.228Z,87.24
2023-02-17T18:22:48.709Z,86.19
2023-02-17T18:25:18.247Z,86.50
2023-02-17T18:27:48.246Z,86.15
2023-02-17T18:30:19.986Z,85.83
2023-02-17T18:32:49.459Z,86.47
2023-02-17T18:35:20.283Z,86.42
2023-02-17T18:37:49.227Z,86.09
2023-02-17T18:40:21.828Z,86.80
2023-02-17T18:42:50.322Z,87.29
2023-02-17T18:45:19.965Z,87.75
2023-02-17T18:47:48.957Z,87.93
2023-02-17T18:50:18.897Z,87.83
2023-02-17T18:52:47.698Z,88.27
2023-02-17T18:55:16.507Z,87.94
2023-02-17T18:57:45.835Z,88.27
2023-02-17T19:00:16.905Z,88.38
2023-02-17T19:02:45.518Z,88.43
2023-02-17T19:05:14.736Z,88.49
2023-02-17T19:07:44.613Z,89.15
2023-02-17T19:10:13.595Z,89.14
2023-02-17T19:12:42.061Z,89.53
2023-02-17T19:15:10.893Z,88.96
2023-02-17T19:17:39.340Z,88.74
2023-02-17T19:20:09.676Z,89.34
2023-02-17T19:22:38.331Z,89.49
2023-02-17T19:25:09.575Z,89.33
2023-02-17T19:27:41.520Z,89.92
2023-02-17T19:30:12.112Z,89.58
2023-02-17T19:32:40.832Z,90.32
2023-02-17T19:35:11.696Z,90.46
2023-02-17T19:37:40.419Z,90.50
2023-02-17T19:40:11.799Z,90.21
2023-02-17T19:42:41.371Z,89.88
2023-02-17T19:45:10.443Z,90.84
2023-02-17T19:47:39.090Z,90.51
2023-02-17T19:50:09.116Z,90.87
2023-02-17T19:52:41.476Z,90.43
2023-02-17T19:55:11.627Z,89.90
2023-02-17T19:57:40.032Z,90.37
2023-02-17T20:00:11.984Z,91.06
2023-02-17T20:02:40.457Z,90.24
2023-02-17T20:05:09.528Z,90.71
2023-02-17T20:07:38.049Z,90.19
2023-02-17T20:10:10.730Z,90.53
2023-02-17T20:12:40.673Z,90.23
2023-02-17T20:15:10.135Z,90.00
2023-02-17T20:17:39.200Z,90.73
2023-02-17T20:20:10.685Z,91.18
2023-02-17T20:22:39.465Z,90.10
2023-02-17T20:25:08.921Z,90.11
2023-02-17T20:27:37.363Z,89.71
2023-02-17T20:30:09.190Z,90.68
2023-02-17T20:32:37.852Z,90.00
2023-02-17T20:35:07.794Z,90.45
2023-02-17T20:37:36.228Z,90.10
2023-02-17T20:40:05.798Z,90.46
2023-02-17T20:42:35.197Z,90.04
2023-02-17T20:45:06.745Z,90.18
2023-02-17T20:47:35.165Z,89.98
2023-02-17T20:50:09.371Z,90.41
2023-02-17T20:52:38.056Z,90.72
2023-02-17T20:55:07.800Z,90.73
2023-02-17T20:57:36.391Z,90.67
2023-02-17T21:00:09.753Z,90.20
2023-02-17T21:02:38.211Z,90.72
2023-02-17T21:05:07.286Z,91.41
2023-02-17T21:07:36.068Z,90.41
2023-02-17T21:10:05.429Z,91.71
2023-02-17T21:12:33.937Z,91.57
2023-02-17T21:15:02.381Z,91.11
2023-02-17T21:17:32.225Z,91.20
2023-02-17T21:20:00.704Z,91.54
2023-02-17T21:22:29.254Z,91.47
2023-02-17T21:24:57.900Z,91.45
2023-02-17T21:27:27.058Z,91.84
2023-02-17T21:29:55.805Z,91.75
2023-02-17T21:32:25.112Z,91.40
2023-02-17T21:34:55.369Z,91.80
2023-02-17T21:37:23.931Z,91.06
2023-02-17T21:39:52.579Z,91.19
2023-02-17T21:42:41.066Z,91.79
2023-02-17T21:45:09.697Z,91.46
2023-02-17T21:47:38.190Z,90.51
2023-02-17T21:50:09.581Z,90.83
2023-02-17T21:52:38.013Z,90.46
2023-02-17T21:55:06.989Z,90.85
2023-02-17T21:57:35.438Z,91.05
2023-02-17T22:00:04.536Z,90.87
2023-02-17T22:02:33.194Z,90.77
2023-02-17T22:05:02.122Z,90.82
2023-02-17T22:07:31.963Z,90.53
2023-02-17T22:10:01.695Z,90.90
2023-02-17T22:12:30.204Z,90.72
2023-02-17T22:14:58.869Z,90.56
2023-02-17T22:17:27.322Z,90.41
2023-02-17T22:19:56.745Z,90.48
2023-02-17T22:22:25.150Z,90.89
2023-02-17T22:24:55.149Z,90.55
2023-02-17T22:27:23.629Z,90.71
2023-02-17T22:29:52.793Z,90.80
2023-02-17T22:32:21.313Z,90.30
2023-02-17T22:34:49.787Z,91.16
2023-02-17T22:37:18.296Z,90.29
2023-02-17T22:39:46.774Z,90.34
2023-02-17T22:42:16.565Z,91.09
2023-02-17T22:44:44.966Z,90.28
2023-02-17T22:47:14.422Z,91.30
2023-02-17T22:49:43.288Z,90.07
2023-02-17T22:52:12.398Z,91.10
2023-02-17T22:54:41.059Z,90.26
2023-02-17T22:57:09.740Z,91.12
2023-02-17T22:59:39.624Z,90.75
2023-02-17T23:02:08.047Z,90.31
2023-02-17T23:04:36.573Z,90.64
2023-02-17T23:07:05.036Z,90.76
2023-02-17T23:09:33.535Z,89.68
2023-02-17T23:12:02.221Z,90.27
2023-02-17T23:14:36.261Z,90.06
2023-02-17T23:17:09.420Z,89.72
2023-02-17T23:19:40.642Z,89.73
2023-02-17T23:22:12.416Z,89.65
2023-02-17T23:24:40.887Z,89.49
2023-02-17T23:27:12.385Z,89.81
2023-02-17T23:29:41.972Z,89.61
2023-02-17T23:32:12.039Z,89.77
2023-02-17T23:34:40.490Z,90.11
2023-02-17T23:37:09.127Z,89.85
2023-02-17T23:39:39.181Z,90.21
2023-02-17T23:42:08.163Z,89.75
2023-02-17T23:44:36.613Z,89.98
2023-02-17T23:47:05.506Z,89.96
2023-02-17T23:49:35.569Z,89.79
2023-02-17T23:52:04.090Z,89.68
2023-02-17T23:54:32.758Z,89.41
2023-02-17T23:57:01.198Z,89.35
2023-02-17T23:59:29.869Z,89.22
